createdAt,value
2022-12-15T00:00:59.347Z,28.4
2022-12-15T00:02:09.423Z,25.3
2022-12-15T00:03:19.560Z,25.2
2022-12-15T00:04:29.636Z,26.3
2022-12-15T00:05:39.776Z,25.4
2022-12-15T00:06:49.969Z,26.3
2022-12-15T00:08:00.044Z,25.2
2022-12-15T00:09:10.192Z,28.2
2022-12-15T00:10:20.289Z,22.5
2022-12-15T00:11:30.437Z,27
2022-12-15T00:12:40.665Z,27.2
2022-12-15T00:13:50.785Z,26.6
2022-12-15T00:15:01.019Z,27.1
2022-12-15T00:16:11.112Z,29
2022-12-15T00:17:21.356Z,28.8
2022-12-15T00:18:31.415Z,25.4
2022-12-15T00:19:41.687Z,25.7
2022-12-15T00:20:51.807Z,23.5
2022-12-15T00:22:01.913Z,25.5
2022-12-15T00:23:12.127Z,21.9
2022-12-15T00:24:22.308Z,24.7
2022-12-15T00:25:32.490Z,28
2022-12-15T00:26:42.763Z,23.1
2022-12-15T00:27:53.049Z,25.1
2022-12-15T00:29:02.309Z,25
2022-12-15T00:30:12.566Z,24.9
2022-12-15T00:31:22.707Z,25
2022-12-15T00:32:32.789Z,23.6
2022-12-15T00:33:43.067Z,26.2
2022-12-15T00:34:53.169Z,25.6
2022-12-15T00:36:03.350Z,25.9
2022-12-15T00:37:13.517Z,26.1
2022-12-15T00:38:23.663Z,23.8
2022-12-15T00:39:33.764Z,26.9
2022-12-15T00:40:43.991Z,27.5
2022-12-15T00:41:54.139Z,24.5
2022-12-15T00:43:04.313Z,27
2022-12-15T00:44:14.469Z,26.3
2022-12-15T00:45:24.610Z,27.1
2022-12-15T00:46:34.776Z,26
2022-12-15T00:47:44.931Z,27.8
2022-12-15T00:48:55.113Z,28.5
2022-12-15T00:50:05.347Z,29.6
2022-12-15T00:51:15.469Z,25.8
2022-12-15T00:52:25.570Z,25.4
2022-12-15T00:53:35.733Z,27.2
2022-12-15T00:54:45.990Z,28.1
2022-12-15T00:55:56.150Z,27.9
2022-12-15T00:57:06.245Z,28.7
2022-12-15T00:58:16.491Z,27
2022-12-15T00:59:25.827Z,28.1
2022-12-15T01:01:45.985Z,28.4
2022-12-15T01:02:56.167Z,28.4
2022-12-15T01:04:06.266Z,28.6
2022-12-15T01:05:16.407Z,26.9
2022-12-15T01:06:26.506Z,25.4
2022-12-15T01:07:36.548Z,28.1
2022-12-15T01:08:46.725Z,25.1
2022-12-15T01:09:56.875Z,28.7
2022-12-15T01:11:06.914Z,27
2022-12-15T01:12:17.115Z,27.4
2022-12-15T01:13:27.134Z,23.4
2022-12-15T01:14:37.292Z,27.1
2022-12-15T01:15:47.386Z,28.3
2022-12-15T01:16:57.568Z,27.5
2022-12-15T01:18:07.630Z,27.4
2022-12-15T01:19:17.815Z,27.1
2022-12-15T01:20:27.839Z,25.5
2022-12-15T01:21:37.967Z,26.4
2022-12-15T01:22:48.177Z,26.1
2022-12-15T01:23:58.206Z,26
2022-12-15T01:25:08.337Z,23.4
2022-12-15T01:26:18.437Z,25.2
2022-12-15T01:27:28.545Z,25
2022-12-15T01:28:38.719Z,24.2
2022-12-15T01:29:48.879Z,24.9
2022-12-15T01:30:59.101Z,26.6
2022-12-15T01:32:09.219Z,22.5
2022-12-15T01:33:19.454Z,24
2022-12-15T01:34:29.533Z,22.6
2022-12-15T01:35:39.757Z,24.8
2022-12-15T01:36:49.876Z,25.1
2022-12-15T01:38:00.132Z,26.6
2022-12-15T01:39:10.266Z,29.6
2022-12-15T01:40:20.423Z,27.4
2022-12-15T01:41:30.506Z,25.5
2022-12-15T01:42:40.741Z,25.8
2022-12-15T01:43:50.984Z,27.4
2022-12-15T01:45:00.264Z,24.2
2022-12-15T01:46:10.506Z,26.8
2022-12-15T01:47:20.585Z,25
2022-12-15T01:48:30.731Z,24.2
2022-12-15T01:49:40.935Z,26.8
2022-12-15T01:50:51.056Z,23.4
2022-12-15T01:52:01.235Z,28
2022-12-15T01:53:11.392Z,24.3
2022-12-15T01:54:21.552Z,24.2
2022-12-15T01:55:31.707Z,26.1
2022-12-15T01:56:41.956Z,24.2
2022-12-15T01:57:52.134Z,27
2022-12-15T01:59:02.275Z,25.7
2022-12-15T02:00:12.394Z,25.4
2022-12-15T02:01:22.593Z,24.6
2022-12-15T02:02:32.689Z,24.3
2022-12-15T02:03:42.913Z,25.3
2022-12-15T02:04:53.029Z,24
2022-12-15T02:06:03.246Z,25.7
2022-12-15T02:07:13.408Z,23.7
2022-12-15T02:08:23.611Z,24.9
2022-12-15T02:09:33.677Z,24.5
2022-12-15T02:10:43.888Z,24.3
2022-12-15T02:11:54.088Z,26.8
2022-12-15T02:13:04.248Z,23.6
2022-12-15T02:14:14.431Z,24.6
2022-12-15T02:15:23.744Z,24.5
2022-12-15T02:16:33.886Z,25.1
2022-12-15T02:17:44.068Z,25.4
2022-12-15T02:18:54.286Z,25.1
2022-12-15T02:20:04.447Z,25.8
2022-12-15T02:21:14.645Z,26.7
2022-12-15T02:22:24.807Z,24.4
2022-12-15T02:23:34.870Z,27.5
2022-12-15T02:24:45.030Z,30.2
2022-12-15T02:25:55.277Z,22.1
2022-12-15T02:27:05.420Z,27.5
2022-12-15T02:28:15.536Z,24.4
2022-12-15T02:29:25.804Z,28.1
2022-12-15T02:30:35.855Z,26.7
2022-12-15T02:31:46.046Z,25.7
2022-12-15T02:32:56.218Z,22.9
2022-12-15T02:34:06.364Z,28
2022-12-15T02:35:16.525Z,22.9
2022-12-15T02:36:25.772Z,25
2022-12-15T02:37:35.835Z,27.6
2022-12-15T02:38:46.007Z,23.5
2022-12-15T02:39:56.061Z,26.1
2022-12-15T02:41:06.241Z,24
2022-12-15T02:42:16.309Z,26.2
2022-12-15T02:43:26.422Z,24.7
2022-12-15T02:44:36.514Z,25.8
2022-12-15T02:45:46.702Z,22.5
2022-12-15T02:46:56.818Z,24.7
2022-12-15T02:48:06.879Z,25
2022-12-15T02:49:17.044Z,25.1
2022-12-15T02:50:27.098Z,22.3
2022-12-15T02:51:37.233Z,25.2
2022-12-15T02:52:47.435Z,27.9
2022-12-15T02:53:57.467Z,25.2
2022-12-15T02:55:07.595Z,24.2
2022-12-15T02:56:17.707Z,23.6
2022-12-15T02:57:27.813Z,27.2
2022-12-15T02:58:37.979Z,26.2
2022-12-15T02:59:48.104Z,24.9
2022-12-15T03:00:58.264Z,23.7
2022-12-15T03:02:08.344Z,28.8
2022-12-15T03:03:18.508Z,23.2
2022-12-15T03:04:28.561Z,24.7
2022-12-15T03:05:38.746Z,22.2
2022-12-15T03:06:48.911Z,25.2
2022-12-15T03:07:59.133Z,23.7
2022-12-15T03:09:09.168Z,24.9
2022-12-15T03:10:19.407Z,24.2
2022-12-15T03:11:29.501Z,25.1
2022-12-15T03:12:39.764Z,24.8
2022-12-15T03:13:49.895Z,24.9
2022-12-15T03:15:00.053Z,26.6
2022-12-15T03:16:10.000Z,24.4
2022-12-15T03:17:20.405Z,25.4
2022-12-15T03:18:30.470Z,22.2
2022-12-15T03:19:40.638Z,27.4
2022-12-15T03:20:50.942Z,25.2
2022-12-15T03:22:01.129Z,23.7
2022-12-15T03:23:10.442Z,22.7
2022-12-15T03:24:20.528Z,24.4
2022-12-15T03:25:30.628Z,26.1
2022-12-15T03:26:40.769Z,27.3
2022-12-15T03:27:50.932Z,24.7
2022-12-15T03:29:01.057Z,25
2022-12-15T03:30:11.120Z,24.2
2022-12-15T03:31:21.300Z,25.2
2022-12-15T03:32:31.330Z,25.7
2022-12-15T03:33:41.544Z,25.6
2022-12-15T03:34:51.579Z,25.7
2022-12-15T03:36:01.701Z,25.9
2022-12-15T03:37:11.805Z,24.8
2022-12-15T03:38:21.932Z,25.6
2022-12-15T03:39:32.039Z,25.1
2022-12-15T03:40:42.215Z,26
2022-12-15T03:41:52.350Z,23.8
2022-12-15T03:43:02.450Z,25.6
2022-12-15T03:44:12.531Z,24.5
2022-12-15T03:45:22.692Z,24.3
2022-12-15T03:46:32.741Z,26.6
2022-12-15T03:47:42.870Z,24.8
2022-12-15T03:48:52.988Z,23.8
2022-12-15T03:50:03.113Z,25.9
2022-12-15T03:51:13.230Z,26.3
2022-12-15T03:52:23.387Z,27.2
2022-12-15T03:53:33.533Z,24.4
2022-12-15T03:54:43.725Z,24.8
2022-12-15T03:55:53.933Z,26.3
2022-12-15T03:57:04.166Z,25.8
2022-12-15T03:58:14.210Z,27.3
2022-12-15T03:59:24.374Z,27.4
2022-12-15T04:00:34.523Z,25
2022-12-15T04:01:44.753Z,27.1
2022-12-15T04:02:54.877Z,27
2022-12-15T04:04:05.093Z,25.7
2022-12-15T04:05:15.193Z,25.8
2022-12-15T04:06:25.338Z,26.3
2022-12-15T04:07:35.584Z,26.3
2022-12-15T04:08:45.022Z,25.6
2022-12-15T04:09:54.373Z,29.3
2022-12-15T04:11:03.752Z,24.9
2022-12-15T04:12:13.996Z,25.8
2022-12-15T04:13:24.229Z,25.5
2022-12-15T04:14:34.474Z,25.8
2022-12-15T04:15:43.800Z,27.2
2022-12-15T04:16:53.938Z,26.4
2022-12-15T04:18:03.993Z,26.4
2022-12-15T04:19:14.194Z,26.2
2022-12-15T04:20:24.225Z,26.1
2022-12-15T04:21:34.317Z,25.4
2022-12-15T04:22:44.489Z,25.3
2022-12-15T04:23:54.619Z,26.3
2022-12-15T04:25:04.730Z,24.9
2022-12-15T04:26:14.820Z,26.6
2022-12-15T04:27:24.977Z,24.6
2022-12-15T04:28:35.039Z,27.8
2022-12-15T04:29:45.234Z,27.4
2022-12-15T04:30:55.275Z,25.8
2022-12-15T04:32:05.423Z,25.9
2022-12-15T04:33:15.513Z,27.2
2022-12-15T04:34:25.634Z,26.2
2022-12-15T04:35:35.727Z,30.2
2022-12-15T04:36:45.902Z,25.8
2022-12-15T04:37:55.985Z,26.9
2022-12-15T04:39:06.145Z,26.7
2022-12-15T04:40:16.225Z,26.9
2022-12-15T04:41:26.386Z,28.4
2022-12-15T04:42:36.435Z,26.8
2022-12-15T04:43:46.642Z,28
2022-12-15T04:44:56.828Z,27.1
2022-12-15T04:46:06.990Z,26.2
2022-12-15T04:47:17.041Z,24.7
2022-12-15T04:48:27.216Z,26.1
2022-12-15T04:49:37.389Z,27
2022-12-15T04:50:46.685Z,28
2022-12-15T04:51:56.853Z,27.9
2022-12-15T04:53:07.010Z,30.5
2022-12-15T04:54:17.095Z,27.9
2022-12-15T04:55:27.263Z,27.3
2022-12-15T04:56:37.424Z,28.4
2022-12-15T04:57:47.600Z,24.6
2022-12-15T04:58:57.764Z,28.1
2022-12-15T05:00:07.961Z,27.7
2022-12-15T05:01:18.225Z,28.2
2022-12-15T05:02:28.242Z,28.3
2022-12-15T05:03:38.487Z,26.9
2022-12-15T05:04:48.582Z,26.5
2022-12-15T05:05:58.844Z,28.1
2022-12-15T05:07:09.018Z,26.7
2022-12-15T05:08:19.131Z,26
2022-12-15T05:09:29.226Z,29.5
2022-12-15T05:10:39.445Z,29.9
2022-12-15T05:11:49.633Z,30.2
2022-12-15T05:12:59.786Z,29.9
2022-12-15T05:14:09.945Z,30
2022-12-15T05:15:20.102Z,29.5
2022-12-15T05:16:30.209Z,28.5
2022-12-15T05:17:40.386Z,26.8
2022-12-15T05:18:50.565Z,27.8
2022-12-15T05:20:00.807Z,26.7
2022-12-15T05:21:11.046Z,31.1
2022-12-15T05:22:20.444Z,31.9
2022-12-15T05:23:30.507Z,36
2022-12-15T05:24:40.713Z,35.4
2022-12-15T05:25:50.910Z,29.2
2022-12-15T05:27:01.071Z,30
2022-12-15T05:28:11.186Z,33.2
2022-12-15T05:29:21.383Z,28.8
2022-12-15T05:30:31.492Z,28.2
2022-12-15T05:31:41.687Z,31.8
2022-12-15T05:32:51.885Z,29.8
2022-12-15T05:34:02.007Z,30.2
2022-12-15T05:35:12.204Z,29.4
2022-12-15T05:36:22.444Z,29
2022-12-15T05:37:32.475Z,26.6
2022-12-15T05:38:42.707Z,27.3
2022-12-15T05:39:52.827Z,29.9
2022-12-15T05:41:02.987Z,26.5
2022-12-15T05:42:13.224Z,26.7
2022-12-15T05:43:23.296Z,30.2
2022-12-15T05:44:33.474Z,29.3
2022-12-15T05:45:43.679Z,29
2022-12-15T05:46:53.798Z,26.7
2022-12-15T05:48:04.019Z,29
2022-12-15T05:49:14.128Z,27
2022-12-15T05:50:24.335Z,30.9
2022-12-15T05:51:34.639Z,31.8
2022-12-15T05:52:43.976Z,28.4
2022-12-15T05:53:54.207Z,30.3
2022-12-15T05:55:03.478Z,29.9
2022-12-15T05:56:13.698Z,30
2022-12-15T05:57:23.854Z,28
2022-12-15T05:58:33.962Z,31
2022-12-15T05:59:44.122Z,28.9
2022-12-15T06:00:54.319Z,31.1
2022-12-15T06:02:04.459Z,29.4
2022-12-15T06:03:14.703Z,28.5
2022-12-15T06:04:24.849Z,27.7
2022-12-15T06:05:34.939Z,28.6
2022-12-15T06:06:45.208Z,28.3
2022-12-15T06:07:55.350Z,30
2022-12-15T06:09:05.429Z,29.9
2022-12-15T06:10:15.670Z,31.2
2022-12-15T06:11:25.865Z,29.8
2022-12-15T06:12:35.923Z,27.7
2022-12-15T06:13:46.094Z,28.8
2022-12-15T06:14:56.314Z,29
2022-12-15T06:16:06.415Z,28.1
2022-12-15T06:17:16.697Z,29
2022-12-15T06:18:26.740Z,27.6
2022-12-15T06:19:36.903Z,28.7
2022-12-15T06:20:47.090Z,27.2
2022-12-15T06:21:57.246Z,29.5
2022-12-15T06:23:07.487Z,29.4
2022-12-15T06:24:17.746Z,28.5
2022-12-15T06:25:26.955Z,30.5
2022-12-15T06:26:37.144Z,26.9
2022-12-15T06:27:47.348Z,30
2022-12-15T06:28:57.525Z,27.5
2022-12-15T06:30:07.629Z,30.1
2022-12-15T06:31:17.849Z,30.5
2022-12-15T06:32:27.932Z,30.5
2022-12-15T06:33:38.182Z,26.1
2022-12-15T06:34:48.291Z,24.8
2022-12-15T06:35:58.448Z,30.4
2022-12-15T06:37:08.729Z,27.2
2022-12-15T06:38:18.767Z,30.9
2022-12-15T06:39:28.920Z,28.3
2022-12-15T06:40:39.080Z,27.5
2022-12-15T06:41:49.330Z,26.7
2022-12-15T06:42:59.427Z,26.8
2022-12-15T06:44:09.683Z,27.7
2022-12-15T06:45:19.847Z,28.3
2022-12-15T06:46:29.906Z,32
2022-12-15T06:47:40.096Z,31.9
2022-12-15T06:48:50.254Z,29.6
2022-12-15T06:50:00.454Z,30.4
2022-12-15T06:51:10.577Z,29.2
2022-12-15T06:52:20.788Z,26.9
2022-12-15T06:53:30.880Z,30.6
2022-12-15T06:54:41.154Z,35.2
2022-12-15T06:55:51.381Z,38.9
2022-12-15T06:57:00.713Z,56.1
2022-12-15T06:58:10.924Z,48.3
2022-12-15T06:59:21.044Z,52.7
2022-12-15T07:00:31.180Z,60.5
2022-12-15T07:01:41.364Z,57.8
2022-12-15T07:02:51.544Z,50.9
2022-12-15T07:04:01.715Z,41.4
2022-12-15T07:05:11.870Z,38.7
2022-12-15T07:06:22.024Z,33.2
2022-12-15T07:07:32.170Z,33.2
2022-12-15T07:08:42.345Z,30.2
2022-12-15T07:09:52.505Z,31.4
2022-12-15T07:11:02.744Z,33
2022-12-15T07:12:12.832Z,30
2022-12-15T07:13:23.043Z,32.3
2022-12-15T07:14:33.153Z,31
2022-12-15T07:15:43.381Z,29.7
2022-12-15T07:16:53.491Z,32.3
2022-12-15T07:18:03.663Z,29.5
2022-12-15T07:19:13.853Z,31.1
2022-12-15T07:20:23.987Z,29.9
2022-12-15T07:21:34.132Z,29.4
2022-12-15T07:22:44.321Z,31
2022-12-15T07:23:54.493Z,30.8
2022-12-15T07:25:04.621Z,32.5
2022-12-15T07:26:14.884Z,31.8
2022-12-15T07:27:24.181Z,28.8
2022-12-15T07:28:34.374Z,31.7
2022-12-15T07:29:44.529Z,34.8
2022-12-15T07:30:54.747Z,30.2
2022-12-15T07:32:04.850Z,30.8
2022-12-15T07:33:15.083Z,31.9
2022-12-15T07:34:25.234Z,31.2
2022-12-15T07:35:35.330Z,31.7
2022-12-15T07:36:45.518Z,34.2
2022-12-15T07:37:55.727Z,31.2
2022-12-15T07:39:05.890Z,34.5
2022-12-15T07:40:16.042Z,31.6
2022-12-15T07:41:26.168Z,30.9
2022-12-15T07:42:36.308Z,32.2
2022-12-15T07:43:46.496Z,31.2
2022-12-15T07:44:56.652Z,30.1
2022-12-15T07:46:06.808Z,32.5
2022-12-15T07:47:16.969Z,32.1
2022-12-15T07:48:27.154Z,29.1
2022-12-15T07:49:37.313Z,30.8
2022-12-15T07:50:47.474Z,29.8
2022-12-15T07:51:57.634Z,30
2022-12-15T07:53:07.795Z,30.1
2022-12-15T07:54:17.956Z,31.8
2022-12-15T07:56:38.434Z,30.6
2022-12-15T07:57:47.816Z,32.2
2022-12-15T07:58:58.035Z,27.4
2022-12-15T08:00:07.255Z,30.4
2022-12-15T08:01:17.416Z,30.8
2022-12-15T08:02:27.472Z,30.4
2022-12-15T08:03:37.600Z,32.4
2022-12-15T08:04:47.785Z,28.6
2022-12-15T08:05:57.843Z,33.1
2022-12-15T08:07:07.961Z,31.3
2022-12-15T08:08:18.078Z,32.2
2022-12-15T08:09:28.174Z,33.9
2022-12-15T08:10:38.316Z,32.1
2022-12-15T08:11:48.474Z,30.7
2022-12-15T08:12:58.537Z,29.9
2022-12-15T08:14:08.696Z,32
2022-12-15T08:15:18.836Z,31.1
2022-12-15T08:16:28.873Z,30.7
2022-12-15T08:17:39.096Z,30.8
2022-12-15T08:18:49.000Z,27.6
2022-12-15T08:19:59.250Z,29
2022-12-15T08:21:09.416Z,29.9
2022-12-15T08:22:19.585Z,33.7
2022-12-15T08:23:29.574Z,26.6
2022-12-15T08:24:39.739Z,29.6
2022-12-15T08:25:49.830Z,30.3
2022-12-15T08:26:59.953Z,31.1
2022-12-15T08:28:10.071Z,30
2022-12-15T08:29:20.226Z,34.5
2022-12-15T08:30:30.484Z,31.3
2022-12-15T08:31:40.617Z,28.6
2022-12-15T08:32:50.730Z,28.9
2022-12-15T08:34:00.956Z,29.2
2022-12-15T08:35:11.131Z,30.7
2022-12-15T08:36:21.307Z,30.1
2022-12-15T08:37:31.366Z,31.8
2022-12-15T08:38:41.596Z,31.1
2022-12-15T08:39:51.753Z,27.9
2022-12-15T08:41:01.915Z,27.6
2022-12-15T08:42:12.072Z,29.6
2022-12-15T08:43:22.184Z,31.4
2022-12-15T08:44:32.436Z,33
2022-12-15T08:45:41.855Z,30.7
2022-12-15T08:46:51.206Z,29.8
2022-12-15T08:48:01.287Z,28.1
2022-12-15T08:49:11.525Z,29.3
2022-12-15T08:50:21.711Z,29.1
2022-12-15T08:51:31.764Z,30.4
2022-12-15T08:52:42.032Z,31.4
2022-12-15T08:53:52.182Z,29.7
2022-12-15T08:55:02.348Z,30.7
2022-12-15T08:56:12.470Z,30.5
2022-12-15T08:57:22.647Z,31.5
2022-12-15T08:58:32.742Z,28.3
2022-12-15T08:59:43.018Z,29.8
2022-12-15T09:00:53.149Z,27.5
2022-12-15T09:02:03.321Z,31
2022-12-15T09:03:13.446Z,26
2022-12-15T09:04:23.620Z,28.9
2022-12-15T09:05:33.731Z,31.1
2022-12-15T09:06:43.949Z,28.7
2022-12-15T09:07:54.128Z,27.7
2022-12-15T09:09:04.228Z,27.9
2022-12-15T09:10:14.450Z,29.6
2022-12-15T09:11:24.571Z,29.7
2022-12-15T09:12:34.704Z,27.5
2022-12-15T09:13:44.889Z,28.9
2022-12-15T09:14:55.046Z,31.2
2022-12-15T09:16:05.310Z,29.1
2022-12-15T09:17:15.616Z,32.7
2022-12-15T09:18:24.960Z,29
2022-12-15T09:19:35.191Z,30.3
2022-12-15T09:20:45.525Z,29.6
2022-12-15T09:21:55.695Z,31.9
2022-12-15T09:23:05.136Z,30.6
2022-12-15T09:24:15.170Z,31.3
2022-12-15T09:25:25.335Z,29.7
2022-12-15T09:26:35.487Z,28.5
2022-12-15T09:27:45.663Z,33.4
2022-12-15T09:28:55.828Z,30.5
2022-12-15T09:30:05.986Z,31.8
2022-12-15T09:31:16.136Z,29.7
2022-12-15T09:32:26.338Z,34.9
2022-12-15T09:33:36.488Z,33
2022-12-15T09:34:46.729Z,33.2
2022-12-15T09:35:56.846Z,29.5
2022-12-15T09:37:06.983Z,32.6
2022-12-15T09:38:17.120Z,33.9
2022-12-15T09:39:27.279Z,33.6
2022-12-15T09:40:37.444Z,31.6
2022-12-15T09:41:47.671Z,35.1
2022-12-15T09:42:57.854Z,30.9
2022-12-15T09:44:08.007Z,30.7
2022-12-15T09:45:18.161Z,32.9
2022-12-15T09:46:28.267Z,32.7
2022-12-15T09:47:38.494Z,37.5
2022-12-15T09:48:48.589Z,36.3
2022-12-15T09:49:58.877Z,34.6
2022-12-15T09:51:08.934Z,38.4
2022-12-15T09:52:19.274Z,45.1
2022-12-15T09:53:29.416Z,35.7
2022-12-15T09:54:39.735Z,35.9
2022-12-15T09:55:50.029Z,44.2
2022-12-15T09:57:00.183Z,35.7
2022-12-15T09:58:10.466Z,35
2022-12-15T09:59:19.729Z,38.7
2022-12-15T10:00:29.771Z,43.2
2022-12-15T10:01:39.965Z,37.8
2022-12-15T10:02:50.047Z,37
2022-12-15T10:04:00.224Z,41.3
2022-12-15T10:05:10.280Z,36.8
2022-12-15T10:06:20.464Z,38.9
2022-12-15T10:07:30.484Z,39.8
2022-12-15T10:08:40.658Z,39.4
2022-12-15T10:09:50.736Z,41.2
2022-12-15T10:11:00.864Z,38.7
2022-12-15T10:12:10.961Z,44.2
2022-12-15T10:13:21.132Z,40.3
2022-12-15T10:14:31.178Z,41.4
2022-12-15T10:15:41.302Z,36
2022-12-15T10:16:51.455Z,39.9
2022-12-15T10:18:01.693Z,42.3
2022-12-15T10:19:11.677Z,44.5
2022-12-15T10:20:21.835Z,38.4
2022-12-15T10:21:31.898Z,46.6
2022-12-15T10:22:42.073Z,43.4
2022-12-15T10:23:52.134Z,39.9
2022-12-15T10:25:02.322Z,44.5
2022-12-15T10:26:12.394Z,46.7
2022-12-15T10:27:22.495Z,40.6
2022-12-15T10:28:32.640Z,40.1
2022-12-15T10:29:42.871Z,45.3
2022-12-15T10:30:53.051Z,39.4
2022-12-15T10:32:03.211Z,42
2022-12-15T10:33:13.364Z,39.4
2022-12-15T10:34:23.524Z,37.4
2022-12-15T10:35:33.621Z,41.2
2022-12-15T10:36:43.805Z,40.1
2022-12-15T10:37:53.964Z,38.9
2022-12-15T10:39:04.127Z,38.2
2022-12-15T10:40:14.282Z,43
2022-12-15T10:41:24.466Z,40.1
2022-12-15T10:42:34.599Z,39.9
2022-12-15T10:43:44.861Z,38.2
2022-12-15T10:44:54.247Z,42.2
2022-12-15T10:46:04.524Z,39.9
2022-12-15T10:47:14.726Z,39.5
2022-12-15T10:48:25.035Z,41.3
2022-12-15T10:49:34.274Z,41.8
2022-12-15T10:50:44.441Z,41.8
2022-12-15T10:51:54.609Z,38.6
2022-12-15T10:53:04.892Z,36.3
2022-12-15T10:54:14.948Z,39.7
2022-12-15T10:55:25.168Z,36.3
2022-12-15T10:56:35.246Z,34.8
2022-12-15T10:57:45.466Z,39
2022-12-15T10:58:55.643Z,35.2
2022-12-15T11:00:05.761Z,34.8
2022-12-15T11:01:15.922Z,34.8
2022-12-15T11:02:26.085Z,37.5
2022-12-15T11:03:36.225Z,35.1
2022-12-15T11:04:46.468Z,37.8
2022-12-15T11:05:56.567Z,34.8
2022-12-15T11:07:06.797Z,37
2022-12-15T11:08:16.913Z,36
2022-12-15T11:09:27.107Z,32.4
2022-12-15T11:10:37.212Z,37.5
2022-12-15T11:11:47.440Z,32.4
2022-12-15T11:12:57.641Z,31.9
2022-12-15T11:14:07.799Z,31.1
2022-12-15T11:15:17.949Z,30.8
2022-12-15T11:16:28.013Z,28
2022-12-15T11:17:38.190Z,35.1
2022-12-15T11:18:48.465Z,32.7
2022-12-15T11:19:57.822Z,32.9
2022-12-15T11:21:07.928Z,34.2
2022-12-15T11:22:18.205Z,38.9
2022-12-15T11:23:28.254Z,36.5
2022-12-15T11:24:38.396Z,35.5
2022-12-15T11:25:48.587Z,40.8
2022-12-15T11:26:58.783Z,33.9
2022-12-15T11:28:08.990Z,34.3
2022-12-15T11:29:19.125Z,33.7
2022-12-15T11:30:29.224Z,31.9
2022-12-15T11:31:39.448Z,29.8
2022-12-15T11:32:49.574Z,29.2
2022-12-15T11:33:59.797Z,30.3
2022-12-15T11:35:09.903Z,31.6
2022-12-15T11:36:20.110Z,32.6
2022-12-15T11:37:30.199Z,26.2
2022-12-15T11:38:40.431Z,32.6
2022-12-15T11:39:50.589Z,27.7
2022-12-15T11:41:00.712Z,30.9
2022-12-15T11:42:10.932Z,31
2022-12-15T11:43:21.025Z,29.3
2022-12-15T11:44:31.172Z,27.6
2022-12-15T11:45:41.355Z,29
2022-12-15T11:46:51.595Z,27.2
2022-12-15T11:48:01.803Z,30
2022-12-15T11:49:11.943Z,31.2
2022-12-15T11:50:21.260Z,30.9
2022-12-15T11:51:31.303Z,32.7
2022-12-15T11:52:41.436Z,30.9
2022-12-15T11:53:51.634Z,29.8
2022-12-15T11:55:01.676Z,29.4
2022-12-15T11:56:11.836Z,34.3
2022-12-15T11:57:21.914Z,31.6
2022-12-15T11:58:32.007Z,30.5
2022-12-15T11:59:42.154Z,31.2
2022-12-15T12:00:52.298Z,30
2022-12-15T12:02:02.414Z,28.7
2022-12-15T12:03:12.476Z,32.7
2022-12-15T12:04:22.581Z,30.8
2022-12-15T12:05:32.695Z,30.6
2022-12-15T12:06:42.886Z,32.6
2022-12-15T12:07:52.946Z,30.1
2022-12-15T12:09:03.067Z,36
2022-12-15T12:10:13.214Z,31.5
2022-12-15T12:11:23.303Z,29.5
2022-12-15T12:12:33.397Z,30.4
2022-12-15T12:13:43.534Z,37.1
2022-12-15T12:14:53.695Z,29.3
2022-12-15T12:16:03.775Z,33.1
2022-12-15T12:17:13.899Z,29.9
2022-12-15T12:18:23.989Z,29.6
2022-12-15T12:20:44.336Z,26.8
2022-12-15T12:21:54.499Z,29.1
2022-12-15T12:23:04.658Z,32.1
2022-12-15T12:24:14.824Z,28.4
2022-12-15T12:25:24.975Z,29.3
2022-12-15T12:26:35.127Z,29.5
2022-12-15T12:27:45.376Z,29
2022-12-15T12:28:55.532Z,27.4
2022-12-15T12:30:05.640Z,30.2
2022-12-15T12:31:15.873Z,29
2022-12-15T12:32:25.971Z,31.5
2022-12-15T12:33:36.116Z,28.8
2022-12-15T12:34:46.367Z,28
2022-12-15T12:35:56.677Z,27.5
2022-12-15T12:37:06.894Z,40
2022-12-15T12:38:17.147Z,54.8
2022-12-15T12:39:27.371Z,34
2022-12-15T12:40:37.588Z,30.2
2022-12-15T12:41:47.910Z,26.4
2022-12-15T12:42:58.195Z,29.1
2022-12-15T12:44:08.422Z,34.3
2022-12-15T12:45:18.654Z,34.7
2022-12-15T12:46:28.825Z,31.4
2022-12-15T12:47:39.147Z,36
2022-12-15T12:48:49.370Z,36.6
2022-12-15T12:51:28.032Z,31.9
2022-12-15T12:52:38.482Z,25.2
2022-12-15T12:53:48.056Z,21.5
2022-12-15T12:54:58.401Z,28.2
2022-12-15T12:56:08.542Z,30.7
2022-12-15T12:57:18.800Z,24.1
2022-12-15T12:58:29.025Z,26.4
2022-12-15T12:59:39.557Z,30.2
2022-12-15T13:00:49.529Z,28.4
2022-12-15T13:01:59.769Z,31.8
2022-12-15T13:03:10.015Z,32.1
2022-12-15T13:04:20.271Z,27.1
2022-12-15T13:05:30.496Z,24.1
2022-12-15T13:06:40.751Z,24.4
2022-12-15T13:07:50.987Z,24.1
2022-12-15T13:09:01.237Z,30.4
2022-12-15T13:10:11.589Z,23.7
2022-12-15T13:11:21.828Z,26.8
2022-12-15T13:12:31.970Z,28.1
2022-12-15T13:13:42.274Z,25.4
2022-12-15T13:14:52.547Z,24.6
2022-12-15T13:16:02.781Z,27.7
2022-12-15T13:17:13.027Z,23.2
2022-12-15T13:18:23.203Z,24.3
2022-12-15T13:19:33.445Z,23.7
2022-12-15T13:20:43.711Z,22.8
2022-12-15T13:21:53.948Z,22.7
2022-12-15T13:23:04.399Z,23.6
2022-12-15T13:24:13.862Z,20.8
2022-12-15T13:25:24.013Z,24.2
2022-12-15T13:26:34.172Z,22.9
2022-12-15T13:27:44.420Z,26
2022-12-15T13:28:54.522Z,24.7
2022-12-15T13:30:04.682Z,25.5
2022-12-15T13:31:14.841Z,24.3
2022-12-15T13:32:25.035Z,25.8
2022-12-15T13:33:35.162Z,26.8
2022-12-15T13:34:45.347Z,24
2022-12-15T13:35:55.544Z,23.9
2022-12-15T13:37:05.788Z,26.4
2022-12-15T13:38:15.882Z,24.4
2022-12-15T13:39:26.028Z,27.2
2022-12-15T13:40:36.140Z,26.1
2022-12-15T13:41:46.331Z,21.7
2022-12-15T13:42:56.530Z,21.9
2022-12-15T13:44:06.717Z,24.8
2022-12-15T13:45:16.809Z,22.7
2022-12-15T13:46:26.970Z,24.4
2022-12-15T13:47:37.113Z,25.1
2022-12-15T13:48:47.292Z,26.5
2022-12-15T13:49:57.460Z,25.1
2022-12-15T13:51:07.803Z,29.2
2022-12-15T13:52:17.808Z,24.6
2022-12-15T13:53:28.090Z,32.6
2022-12-15T13:54:38.275Z,25.8
2022-12-15T13:55:48.514Z,23.6
2022-12-15T13:56:58.838Z,28.1
2022-12-15T13:58:09.080Z,28.1
2022-12-15T13:59:19.336Z,27.4
2022-12-15T14:00:29.497Z,25
2022-12-15T14:01:39.761Z,26.8
2022-12-15T14:02:50.069Z,26.4
2022-12-15T14:04:00.298Z,25
2022-12-15T14:05:10.514Z,25.2
2022-12-15T14:06:20.735Z,29.8
2022-12-15T14:07:30.967Z,26.9
2022-12-15T14:08:41.418Z,31.5
2022-12-15T14:09:50.991Z,28.8
2022-12-15T14:11:01.339Z,27.9
2022-12-15T14:12:11.488Z,25.9
2022-12-15T14:13:21.781Z,25.2
2022-12-15T14:14:31.959Z,26.1
2022-12-15T14:15:42.307Z,30.9
2022-12-15T14:16:52.536Z,24.9
2022-12-15T14:18:02.733Z,25.6
2022-12-15T14:19:13.093Z,24.2
2022-12-15T14:20:23.247Z,24.6
2022-12-15T14:21:33.433Z,25.7
2022-12-15T14:22:43.765Z,27.3
2022-12-15T14:23:53.945Z,23.3
2022-12-15T14:25:04.227Z,24.8
2022-12-15T14:26:14.507Z,28.9
2022-12-15T14:27:24.723Z,33.7
2022-12-15T14:28:34.920Z,31.7
2022-12-15T14:29:45.184Z,62.5
2022-12-15T14:30:55.425Z,64.2
2022-12-15T14:32:05.666Z,37.6
2022-12-15T14:33:15.914Z,23.6
2022-12-15T14:34:26.222Z,31
2022-12-15T14:35:36.388Z,25.3
2022-12-15T14:36:46.654Z,25.3
2022-12-15T14:37:56.902Z,21.2
2022-12-15T14:39:07.335Z,26.9
2022-12-15T14:40:16.895Z,31.5
2022-12-15T14:41:27.205Z,26.5
2022-12-15T14:42:37.384Z,26.3
2022-12-15T14:43:47.748Z,23.5
2022-12-15T14:44:58.032Z,21.7
2022-12-15T14:46:08.167Z,22.2
2022-12-15T14:47:18.435Z,22.1
2022-12-15T14:48:28.607Z,21.3
2022-12-15T14:49:38.858Z,19.9
2022-12-15T14:50:49.168Z,22
2022-12-15T14:51:59.452Z,24.5
2022-12-15T14:53:09.714Z,24.3
2022-12-15T14:54:19.912Z,28.3
2022-12-15T14:55:30.081Z,22.5
2022-12-15T14:56:40.388Z,25.3
2022-12-15T14:57:50.590Z,25.9
2022-12-15T14:59:00.840Z,25.5
2022-12-15T15:00:11.094Z,22.8
2022-12-15T15:01:21.333Z,24.5
2022-12-15T15:03:41.803Z,24.3
2022-12-15T15:04:52.120Z,22.5
2022-12-15T15:06:02.350Z,24.5
2022-12-15T15:07:12.642Z,24.6
2022-12-15T15:08:22.794Z,29.9
2022-12-15T15:09:33.219Z,27.3
2022-12-15T15:10:42.968Z,21.5
2022-12-15T15:11:52.560Z,24.7
2022-12-15T15:13:02.839Z,23.6
2022-12-15T15:14:12.998Z,22
2022-12-15T15:15:23.223Z,22.5
2022-12-15T15:16:33.475Z,22.7
2022-12-15T15:17:43.780Z,24.5
2022-12-15T15:18:53.983Z,27.8
2022-12-15T15:20:04.290Z,23.3
2022-12-15T15:21:14.452Z,26
2022-12-15T15:22:24.784Z,26.6
2022-12-15T15:23:34.956Z,22.5
2022-12-15T15:24:45.201Z,26.6
2022-12-15T15:25:55.503Z,23.2
2022-12-15T15:27:05.745Z,24.3
2022-12-15T15:28:15.088Z,25.1
2022-12-15T15:29:25.343Z,25.6
2022-12-15T15:30:35.330Z,28.7
2022-12-15T15:31:45.564Z,25
2022-12-15T15:32:55.676Z,32.1
2022-12-15T15:34:05.838Z,26.3
2022-12-15T15:35:16.008Z,24.5
2022-12-15T15:36:26.152Z,26.7
2022-12-15T15:37:36.310Z,26.2
2022-12-15T15:38:46.498Z,25.7
2022-12-15T15:39:56.655Z,26.1
2022-12-15T15:41:06.873Z,27.1
2022-12-15T15:42:16.976Z,31.1
2022-12-15T15:43:27.194Z,26
2022-12-15T15:44:37.290Z,30.2
2022-12-15T15:45:47.517Z,30
2022-12-15T15:46:57.694Z,31.6